sensor_id;sensor_type;location;lat;lon;timestamp;pressure;altitude;pressure_sealevel;temperature;humidity
26178;BME280;13924;47.670;10.310;2023-08-06T00:00:38;93580;;;12.7;100.0
26178;BME280;13924;47.670;10.310;2023-08-06T00:15:39;93580;;;12.6;100.0
26178;BME280;13924;47.670;10.310;2023-08-06T00:30:39;93580;;;12.7;100.0
26178;BME280;13924;47.670;10.310;2023-08-06T00:45:41;93560;;;12.8;100.0
26178;BME280;13924;47.670;10.310;2023-08-06T01:00:40;93560;;;12.6;100.0
26178;BME280;13924;47.670;10.310;2023-08-06T01:01:30;93570;;;12.7;100.0
26178;BME280;13924;47.670;10.310;2023-08-06T01:15:46;93560;;;12.4;100.0
26178;BME280;13924;47.670;10.310;2023-08-06T01:30:42;93550;;;12.6;100.0
26178;BME280;13924;47.670;10.310;2023-08-06T01:45:42;93540;;;12.5;100.0
26178;BME280;13924;47.670;10.310;2023-08-06T02:00:43;93530;;;12.5;100.0
26178;BME280;13924;47.670;10.310;2023-08-06T02:15:44;93530;;;12.4;100.0
26178;BME280;13924;47.670;10.310;2023-08-06T02:30:50;93490;;;12.6;100.0
26178;BME280;13924;47.670;10.310;2023-08-06T02:45:45;93480;;;12.2;100.0
26178;BME280;13924;47.670;10.310;2023-08-06T03:00:45;93460;;;11.9;100.0
26178;BME280;13924;47.670;10.310;2023-08-06T03:15:52;93470;;;11.9;100.0
26178;BME280;13924;47.670;10.310;2023-08-06T03:30:47;93430;;;12.0;100.0
26178;BME280;13924;47.670;10.310;2023-08-06T03:45:47;93430;;;12.0;100.0
26178;BME280;13924;47.670;10.310;2023-08-06T03:59:03;93300;;;12.1;100.0
26178;BME280;13924;47.670;10.310;2023-08-06T04:14:03;93330;;;12.1;100.0
26178;BME280;13924;47.670;10.310;2023-08-06T04:29:04;93320;;;12.0;100.0
26178;BME280;13924;47.670;10.310;2023-08-06T04:44:04;93140;;;12.1;100.0
26178;BME280;13924;47.670;10.310;2023-08-06T04:59:05;93140;;;12.1;100.0
26178;BME280;13924;47.670;10.310;2023-08-06T05:14:06;92990;;;12.6;100.0
26178;BME280;13924;47.670;10.310;2023-08-06T05:29:07;92900;;;13.0;100.0
26178;BME280;13924;47.670;10.310;2023-08-06T05:44:08;92950;;;13.3;100.0
26178;BME280;13924;47.670;10.310;2023-08-06T05:59:08;92800;;;13.5;100.0
26178;BME280;13924;47.670;10.310;2023-08-06T06:14:09;92960;;;13.3;100.0
26178;BME280;13924;47.670;10.310;2023-08-06T06:29:10;93410;;;12.1;100.0
26178;BME280;13924;47.670;10.310;2023-08-06T06:44:10;93400;;;12.0;100.0
26178;BME280;13924;47.670;10.310;2023-08-06T06:59:11;93370;;;12.0;100.0
26178;BME280;13924;47.670;10.310;2023-08-06T07:14:11;93320;;;12.1;100.0
26178;BME280;13924;47.670;10.310;2023-08-06T07:29:12;93160;;;12.2;100.0
26178;BME280;13924;47.670;10.310;2023-08-06T07:44:13;93060;;;12.6;100.0
26178;BME280;13924;47.670;10.310;2023-08-06T07:59:13;93060;;;12.8;100.0
26178;BME280;13924;47.670;10.310;2023-08-06T08:14:14;92960;;;12.8;100.0
26178;BME280;13924;47.670;10.310;2023-08-06T08:29:16;92960;;;12.8;100.0
26178;BME280;13924;47.670;10.310;2023-08-06T08:44:21;92970;;;12.8;100.0
26178;BME280;13924;47.670;10.310;2023-08-06T08:59:16;93410;;;12.2;100.0
26178;BME280;13924;47.670;10.310;2023-08-06T09:14:19;93410;;;12.2;100.0
26178;BME280;13924;47.670;10.310;2023-08-06T09:29:18;93540;;;11.8;100.0
26178;BME280;13924;47.670;10.310;2023-08-06T09:44:20;93500;;;12.0;100.0
26178;BME280;13924;47.670;10.310;2023-08-06T09:59:19;93440;;;12.0;100.0
26178;BME280;13924;47.670;10.310;2023-08-06T10:14:24;93520;;;12.0;100.0
26178;BME280;13924;47.670;10.310;2023-08-06T10:29:37;93440;;;11.9;100.0
26178;BME280;13924;47.670;10.310;2023-08-06T10:44:21;93570;;;11.5;100.0
26178;BME280;13924;47.670;10.310;2023-08-06T10:59:22;93640;;;11.4;100.0
26178;BME280;13924;47.670;10.310;2023-08-06T11:14:26;93530;;;11.9;100.0
26178;BME280;13924;47.670;10.310;2023-08-06T11:29:23;93430;;;12.1;100.0
26178;BME280;13924;47.670;10.310;2023-08-06T11:44:23;93520;;;12.1;100.0
26178;BME280;13924;47.670;10.310;2023-08-06T11:59:25;93620;;;11.6;100.0
26178;BME280;13924;47.670;10.310;2023-08-06T12:14:24;93620;;;12.0;100.0
26178;BME280;13924;47.670;10.310;2023-08-06T12:29:25;93650;;;11.8;100.0
26178;BME280;13924;47.670;10.310;2023-08-06T12:44:26;93550;;;11.9;100.0
26178;BME280;13924;47.670;10.310;2023-08-06T12:59:26;93430;;;12.0;100.0
26178;BME280;13924;47.670;10.310;2023-08-06T13:14:28;93440;;;12.4;100.0
26178;BME280;13924;47.670;10.310;2023-08-06T13:29:28;93350;;;12.2;100.0
26178;BME280;13924;47.670;10.310;2023-08-06T13:44:28;93400;;;12.2;100.0
26178;BME280;13924;47.670;10.310;2023-08-06T13:59:29;93530;;;12.1;100.0
26178;BME280;13924;47.670;10.310;2023-08-06T14:14:30;93560;;;12.2;100.0
26178;BME280;13924;47.670;10.310;2023-08-06T14:29:31;93720;;;11.9;100.0
26178;BME280;13924;47.670;10.310;2023-08-06T14:44:31;93740;;;12.1;100.0
26178;BME280;13924;47.670;10.310;2023-08-06T14:59:32;93680;;;12.2;100.0
26178;BME280;13924;47.670;10.310;2023-08-06T15:14:32;93740;;;12.0;100.0
26178;BME280;13924;47.670;10.310;2023-08-06T15:29:34;93470;;;12.4;100.0
26178;BME280;13924;47.670;10.310;2023-08-06T15:44:34;93440;;;12.6;100.0
26178;BME280;13924;47.670;10.310;2023-08-06T15:59:34;93410;;;12.6;100.0
26178;BME280;13924;47.670;10.310;2023-08-06T16:14:37;93410;;;12.6;100.0
26178;BME280;13924;47.670;10.310;2023-08-06T16:29:36;93400;;;12.6;100.0
26178;BME280;13924;47.670;10.310;2023-08-06T16:44:38;93390;;;12.6;100.0
26178;BME280;13924;47.670;10.310;2023-08-06T16:59:39;93390;;;12.6;100.0
26178;BME280;13924;47.670;10.310;2023-08-06T17:14:40;93370;;;12.4;100.0
26178;BME280;13924;47.670;10.310;2023-08-06T17:29:39;93680;;;11.7;100.0
26178;BME280;13924;47.670;10.310;2023-08-06T17:44:39;93670;;;11.4;100.0
26178;BME280;13924;47.670;10.310;2023-08-06T17:59:41;93630;;;11.5;100.0
26178;BME280;13924;47.670;10.310;2023-08-06T18:14:44;93720;;;11.6;100.0
26178;BME280;13924;47.670;10.310;2023-08-06T18:29:41;93670;;;11.7;100.0
26178;BME280;13924;47.670;10.310;2023-08-06T18:44:46;93670;;;11.7;100.0
26178;BME280;13924;47.670;10.310;2023-08-06T18:59:43;93810;;;11.1;100.0
26178;BME280;13924;47.670;10.310;2023-08-06T19:14:45;93810;;;11.1;100.0
26178;BME280;13924;47.670;10.310;2023-08-06T19:29:48;93810;;;11.1;100.0
26178;BME280;13924;47.670;10.310;2023-08-06T19:44:44;93980;;;9.4;100.0
26178;BME280;13924;47.670;10.310;2023-08-06T19:59:47;93980;;;9.4;100.0
26178;BME280;13924;47.670;10.310;2023-08-06T20:14:47;94010;;;9.6;100.0
26178;BME280;13924;47.670;10.310;2023-08-06T20:29:48;93990;;;9.3;100.0
26178;BME280;13924;47.670;10.310;2023-08-06T20:44:48;93980;;;9.5;100.0
26178;BME280;13924;47.670;10.310;2023-08-06T20:59:48;94000;;;9.3;100.0
26178;BME280;13924;47.670;10.310;2023-08-06T21:14:48;94000;;;9.9;100.0
26178;BME280;13924;47.670;10.310;2023-08-06T21:29:49;94020;;;10.0;100.0
26178;BME280;13924;47.670;10.310;2023-08-06T21:44:50;94020;;;10.1;100.0
26178;BME280;13924;47.670;10.310;2023-08-06T21:59:50;93930;;;10.3;100.0
26178;BME280;13924;47.670;10.310;2023-08-06T22:00:42;93910;;;10.3;100.0
26178;BME280;13924;47.670;10.310;2023-08-06T22:15:39;93880;;;10.3;100.0
26178;BME280;13924;47.670;10.310;2023-08-06T22:30:40;94010;;;9.9;100.0
26178;BME280;13924;47.670;10.310;2023-08-06T22:45:40;94050;;;9.8;100.0
26178;BME280;13924;47.670;10.310;2023-08-06T23:00:45;94050;;;10.0;100.0
26178;BME280;13924;47.670;10.310;2023-08-06T23:15:39;94110;;;9.6;100.0
26178;BME280;13924;47.670;10.310;2023-08-06T23:30:43;94090;;;9.2;100.0
26178;BME280;13924;47.670;10.310;2023-08-06T23:45:40;94050;;;9.3;100.0
